Willimantic, CT

7:06 AM EST on December 28, 2014 (GMT -0500)
Groton-New London | Change Station
CLOSE
Current Station
Airport
Location: Groton,
Elevation: 10 ft
Nearby Weather Stations

Elev 10 ft 41.33 °N, 72.05 °W | Updated 10 minutes ago

Overcast
Overcast
46 °F
Feels Like 43 °F
N
6
Wind Variable Wind from WSW

Today
High -- | Low -- °F
--% Chance of Precip.
Yesterday
High -- | Low -- °F
Precip. -- in
7:15 AM 4:25 PM
Waxing Crescent, 47% visible
Pressure 29.90 in
Visibility 8.0 miles
Clouds Overcast 8000 ft
Windchill 43 °F
Dew Point 43 °F
Humidity 89%
Rainfall 0.00 in
Snow Depth Not available.
UV 0 out of 12
Pollen .10 out of 12
Air Quality Not available.
Flu Activity Not available.
METAR KGON 281156Z 24005KT 8SM OVC080 08/06 A2990 RMK AO2 RAB15E25 SLP125 P0000 60000 T00780061 10078 20011 55006

More Conditions Fewer Conditions

Pressure 29.90 in
Visibility 8.0 miles
Clouds Overcast 8000 ft
Windchill 43 °F
Dew Point 43 °F
Humidity 89%
Rainfall 0.00 in
Snow Depth Not available.
UV 0 out of 12
Pollen .10 out of 12
Air Quality Not available.
Flu Activity Not available.
METAR KGON 281156Z 24005KT 8SM OVC080 08/06 A2990 RMK AO2 RAB15E25 SLP125 P0000 60000 T00780061 10078 20011 55006

More Conditions Fewer Conditions

10-Day Weather Forecast

Almanac

Astronomy

Dec. 28, 2014 Rise Set
Actual Time
Civil Twilight
Nautical Twilight
Astronomical Twilight
Moon
Length of Visible Light
Length of Day
Tomorrow will be .
, % of the Moon is Illuminated

Today's Extremes

State Highs State Lows

Community

WunderPhotos

Upload Photos

1,781,231 photos uploaded!

WunderBlogs® & News

Nearby

Air Quality

  Air Quality AQ Index Pollutant
Not available.

Snow Depth

Station Depth Elevation

Earthquake Activity

City Distance Mag. Time & Date
Minimum magnitude displayed is 2.5.

Coastal Water Temperatures

Place Temperature

Nearby Weather Stations